sensor_id;sensor_type;location;lat;lon;timestamp;P1;durP1;ratioP1;P2;durP2;ratioP2
13366;SDS011;6752;52.612;13.630;2022-07-22T00:03:46;12.90;;;10.35;;
13366;SDS011;6752;52.612;13.630;2022-07-22T00:08:48;11.10;;;8.70;;
13366;SDS011;6752;52.612;13.630;2022-07-22T00:13:51;12.30;;;8.45;;
13366;SDS011;6752;52.612;13.630;2022-07-22T00:18:53;9.15;;;6.95;;
13366;SDS011;6752;52.612;13.630;2022-07-22T00:23:55;11.45;;;8.82;;
13366;SDS011;6752;52.612;13.630;2022-07-22T00:28:58;10.02;;;7.93;;
13366;SDS011;6752;52.612;13.630;2022-07-22T00:34:01;11.98;;;8.13;;
13366;SDS011;6752;52.612;13.630;2022-07-22T00:39:03;13.82;;;9.75;;
13366;SDS011;6752;52.612;13.630;2022-07-22T00:44:07;11.55;;;9.05;;
13366;SDS011;6752;52.612;13.630;2022-07-22T00:49:09;12.57;;;9.63;;
13366;SDS011;6752;52.612;13.630;2022-07-22T00:54:15;13.10;;;9.98;;
13366;SDS011;6752;52.612;13.630;2022-07-22T00:59:18;12.33;;;9.63;;
13366;SDS011;6752;52.612;13.630;2022-07-22T01:04:21;11.10;;;9.35;;
13366;SDS011;6752;52.612;13.630;2022-07-22T01:14:25;12.25;;;7.53;;
13366;SDS011;6752;52.612;13.630;2022-07-22T01:24:30;9.85;;;7.40;;
13366;SDS011;6752;52.612;13.630;2022-07-22T01:29:32;10.85;;;6.85;;
13366;SDS011;6752;52.612;13.630;2022-07-22T01:34:35;8.95;;;6.60;;
13366;SDS011;6752;52.612;13.630;2022-07-22T01:39:37;8.93;;;6.30;;
13366;SDS011;6752;52.612;13.630;2022-07-22T01:44:39;10.85;;;6.15;;
13366;SDS011;6752;52.612;13.630;2022-07-22T01:49:42;10.88;;;5.62;;
13366;SDS011;6752;52.612;13.630;2022-07-22T01:59:56;9.75;;;4.47;;
13366;SDS011;6752;52.612;13.630;2022-07-22T02:04:57;9.02;;;4.82;;
13366;SDS011;6752;52.612;13.630;2022-07-22T02:10:00;7.43;;;4.93;;
13366;SDS011;6752;52.612;13.630;2022-07-22T02:15:05;9.48;;;5.53;;
13366;SDS011;6752;52.612;13.630;2022-07-22T02:20:09;12.40;;;6.72;;
13366;SDS011;6752;52.612;13.630;2022-07-22T02:25:12;10.55;;;5.45;;
13366;SDS011;6752;52.612;13.630;2022-07-22T02:30:16;8.85;;;5.03;;
13366;SDS011;6752;52.612;13.630;2022-07-22T02:35:21;10.25;;;5.80;;
13366;SDS011;6752;52.612;13.630;2022-07-22T02:40:23;8.25;;;5.18;;
13366;SDS011;6752;52.612;13.630;2022-07-22T02:45:26;8.43;;;5.05;;
13366;SDS011;6752;52.612;13.630;2022-07-22T02:50:28;8.13;;;5.05;;
13366;SDS011;6752;52.612;13.630;2022-07-22T02:55:32;9.57;;;6.25;;
13366;SDS011;6752;52.612;13.630;2022-07-22T03:00:38;8.63;;;5.37;;
13366;SDS011;6752;52.612;13.630;2022-07-22T03:05:37;11.80;;;6.43;;
13366;SDS011;6752;52.612;13.630;2022-07-22T03:10:39;8.63;;;5.72;;
13366;SDS011;6752;52.612;13.630;2022-07-22T03:15:49;8.38;;;5.05;;
13366;SDS011;6752;52.612;13.630;2022-07-22T03:20:51;7.80;;;4.83;;
13366;SDS011;6752;52.612;13.630;2022-07-22T03:25:54;7.25;;;4.75;;
13366;SDS011;6752;52.612;13.630;2022-07-22T03:30:56;8.60;;;5.00;;
13366;SDS011;6752;52.612;13.630;2022-07-22T03:36:00;9.18;;;5.70;;
13366;SDS011;6752;52.612;13.630;2022-07-22T03:41:03;8.47;;;5.43;;
13366;SDS011;6752;52.612;13.630;2022-07-22T03:46:05;8.73;;;6.07;;
13366;SDS011;6752;52.612;13.630;2022-07-22T03:51:07;10.48;;;7.30;;
13366;SDS011;6752;52.612;13.630;2022-07-22T04:06:23;12.02;;;7.62;;
13366;SDS011;6752;52.612;13.630;2022-07-22T04:11:25;10.02;;;7.18;;
13366;SDS011;6752;52.612;13.630;2022-07-22T04:16:28;13.05;;;8.65;;
13366;SDS011;6752;52.612;13.630;2022-07-22T04:21:30;13.50;;;9.55;;
13366;SDS011;6752;52.612;13.630;2022-07-22T04:26:35;13.00;;;9.38;;
13366;SDS011;6752;52.612;13.630;2022-07-22T04:31:40;14.13;;;10.00;;
13366;SDS011;6752;52.612;13.630;2022-07-22T04:36:45;16.70;;;10.07;;
13366;SDS011;6752;52.612;13.630;2022-07-22T04:41:48;12.50;;;11.20;;
13366;SDS011;6752;52.612;13.630;2022-07-22T04:46:51;15.82;;;11.23;;
13366;SDS011;6752;52.612;13.630;2022-07-22T04:51:54;14.05;;;10.93;;
13366;SDS011;6752;52.612;13.630;2022-07-22T04:56:57;16.02;;;11.60;;
13366;SDS011;6752;52.612;13.630;2022-07-22T05:01:59;15.65;;;10.77;;
13366;SDS011;6752;52.612;13.630;2022-07-22T05:07:08;13.32;;;10.60;;
13366;SDS011;6752;52.612;13.630;2022-07-22T05:12:10;14.85;;;11.85;;
13366;SDS011;6752;52.612;13.630;2022-07-22T05:17:16;16.17;;;13.55;;
13366;SDS011;6752;52.612;13.630;2022-07-22T05:22:18;16.40;;;13.73;;
13366;SDS011;6752;52.612;13.630;2022-07-22T05:27:23;17.45;;;12.57;;
13366;SDS011;6752;52.612;13.630;2022-07-22T05:32:26;20.17;;;15.27;;
13366;SDS011;6752;52.612;13.630;2022-07-22T05:37:28;15.20;;;13.63;;
13366;SDS011;6752;52.612;13.630;2022-07-22T05:42:31;16.95;;;13.88;;
13366;SDS011;6752;52.612;13.630;2022-07-22T05:47:33;20.50;;;15.63;;
13366;SDS011;6752;52.612;13.630;2022-07-22T05:52:36;15.63;;;13.32;;
13366;SDS011;6752;52.612;13.630;2022-07-22T05:57:41;16.30;;;14.27;;
13366;SDS011;6752;52.612;13.630;2022-07-22T06:02:43;15.95;;;13.27;;
13366;SDS011;6752;52.612;13.630;2022-07-22T06:07:52;18.35;;;14.95;;
13366;SDS011;6752;52.612;13.630;2022-07-22T06:13:01;17.45;;;14.85;;
13366;SDS011;6752;52.612;13.630;2022-07-22T06:18:11;15.80;;;13.07;;
13366;SDS011;6752;52.612;13.630;2022-07-22T06:23:16;15.15;;;13.25;;
13366;SDS011;6752;52.612;13.630;2022-07-22T06:28:30;18.48;;;14.23;;
13366;SDS011;6752;52.612;13.630;2022-07-22T06:33:36;14.37;;;12.20;;
13366;SDS011;6752;52.612;13.630;2022-07-22T06:38:38;16.00;;;11.45;;
13366;SDS011;6752;52.612;13.630;2022-07-22T06:43:41;16.15;;;12.73;;
13366;SDS011;6752;52.612;13.630;2022-07-22T06:48:44;18.40;;;11.27;;
13366;SDS011;6752;52.612;13.630;2022-07-22T06:53:50;14.23;;;11.12;;
13366;SDS011;6752;52.612;13.630;2022-07-22T06:58:58;11.95;;;10.43;;
13366;SDS011;6752;52.612;13.630;2022-07-22T07:04:00;13.27;;;10.63;;
13366;SDS011;6752;52.612;13.630;2022-07-22T07:09:03;13.38;;;9.52;;
13366;SDS011;6752;52.612;13.630;2022-07-22T07:14:05;13.60;;;9.68;;
13366;SDS011;6752;52.612;13.630;2022-07-22T07:19:09;11.55;;;9.30;;
13366;SDS011;6752;52.612;13.630;2022-07-22T07:24:11;15.55;;;10.27;;
13366;SDS011;6752;52.612;13.630;2022-07-22T07:29:16;12.50;;;10.18;;
13366;SDS011;6752;52.612;13.630;2022-07-22T07:34:18;13.32;;;9.23;;
13366;SDS011;6752;52.612;13.630;2022-07-22T07:39:20;10.63;;;8.77;;
13366;SDS011;6752;52.612;13.630;2022-07-22T07:44:23;13.23;;;9.27;;
13366;SDS011;6752;52.612;13.630;2022-07-22T07:49:25;11.27;;;9.55;;
13366;SDS011;6752;52.612;13.630;2022-07-22T07:54:27;10.23;;;7.87;;
13366;SDS011;6752;52.612;13.630;2022-07-22T07:59:30;10.43;;;8.07;;
13366;SDS011;6752;52.612;13.630;2022-07-22T08:04:33;9.63;;;6.57;;
13366;SDS011;6752;52.612;13.630;2022-07-22T08:09:35;10.63;;;6.78;;
13366;SDS011;6752;52.612;13.630;2022-07-22T08:14:37;8.80;;;5.95;;
13366;SDS011;6752;52.612;13.630;2022-07-22T08:23:39;7.75;;;5.55;;
13366;SDS011;6752;52.612;13.630;2022-07-22T08:28:42;7.37;;;5.30;;
13366;SDS011;6752;52.612;13.630;2022-07-22T08:33:44;6.95;;;4.18;;
13366;SDS011;6752;52.612;13.630;2022-07-22T08:38:47;8.27;;;4.60;;
13366;SDS011;6752;52.612;13.630;2022-07-22T08:43:49;7.80;;;4.07;;
13366;SDS011;6752;52.612;13.630;2022-07-22T08:53:54;7.28;;;4.22;;
13366;SDS011;6752;52.612;13.630;2022-07-22T08:58:57;5.78;;;3.08;;
13366;SDS011;6752;52.612;13.630;2022-07-22T09:03:59;8.75;;;4.00;;
13366;SDS011;6752;52.612;13.630;2022-07-22T09:09:03;7.12;;;3.75;;
13366;SDS011;6752;52.612;13.630;2022-07-22T09:14:04;6.82;;;3.47;;
13366;SDS011;6752;52.612;13.630;2022-07-22T09:19:07;5.85;;;3.55;;
13366;SDS011;6752;52.612;13.630;2022-07-22T09:29:14;5.75;;;3.37;;
13366;SDS011;6752;52.612;13.630;2022-07-22T09:34:26;5.75;;;3.33;;
13366;SDS011;6752;52.612;13.630;2022-07-22T09:39:36;5.90;;;2.90;;
13366;SDS011;6752;52.612;13.630;2022-07-22T09:44:38;6.30;;;3.30;;
13366;SDS011;6752;52.612;13.630;2022-07-22T09:49:41;6.78;;;3.00;;
13366;SDS011;6752;52.612;13.630;2022-07-22T09:54:43;8.23;;;4.68;;
13366;SDS011;6752;52.612;13.630;2022-07-22T09:59:46;10.07;;;4.80;;
13366;SDS011;6752;52.612;13.630;2022-07-22T10:04:48;9.50;;;4.70;;
13366;SDS011;6752;52.612;13.630;2022-07-22T10:09:54;15.70;;;4.90;;
13366;SDS011;6752;52.612;13.630;2022-07-22T10:14:56;6.45;;;3.97;;
13366;SDS011;6752;52.612;13.630;2022-07-22T10:19:59;7.28;;;4.20;;
13366;SDS011;6752;52.612;13.630;2022-07-22T10:25:05;9.23;;;3.85;;
13366;SDS011;6752;52.612;13.630;2022-07-22T10:30:07;6.47;;;3.72;;
13366;SDS011;6752;52.612;13.630;2022-07-22T10:40:14;7.55;;;3.33;;
13366;SDS011;6752;52.612;13.630;2022-07-22T10:45:15;5.28;;;2.75;;
13366;SDS011;6752;52.612;13.630;2022-07-22T10:55:39;5.22;;;1.62;;
13366;SDS011;6752;52.612;13.630;2022-07-22T11:00:40;3.80;;;1.45;;
13366;SDS011;6752;52.612;13.630;2022-07-22T11:05:51;7.18;;;1.80;;
13366;SDS011;6752;52.612;13.630;2022-07-22T11:10:54;3.65;;;1.58;;
13366;SDS011;6752;52.612;13.630;2022-07-22T11:21:24;4.15;;;2.40;;
13366;SDS011;6752;52.612;13.630;2022-07-22T11:31:48;6.12;;;2.33;;
13366;SDS011;6752;52.612;13.630;2022-07-22T11:36:50;4.93;;;2.55;;
13366;SDS011;6752;52.612;13.630;2022-07-22T11:41:54;20.62;;;4.20;;
13366;SDS011;6752;52.612;13.630;2022-07-22T11:46:59;6.57;;;2.92;;
13366;SDS011;6752;52.612;13.630;2022-07-22T11:51:58;6.47;;;3.40;;
13366;SDS011;6752;52.612;13.630;2022-07-22T11:57:01;13.40;;;3.35;;
13366;SDS011;6752;52.612;13.630;2022-07-22T12:02:03;12.57;;;3.95;;
13366;SDS011;6752;52.612;13.630;2022-07-22T12:07:05;6.15;;;3.62;;
13366;SDS011;6752;52.612;13.630;2022-07-22T12:12:08;6.75;;;4.15;;
13366;SDS011;6752;52.612;13.630;2022-07-22T12:17:11;8.60;;;3.22;;
13366;SDS011;6752;52.612;13.630;2022-07-22T12:22:20;6.37;;;3.80;;
13366;SDS011;6752;52.612;13.630;2022-07-22T12:27:22;4.93;;;3.08;;
13366;SDS011;6752;52.612;13.630;2022-07-22T12:32:25;7.60;;;3.72;;
13366;SDS011;6752;52.612;13.630;2022-07-22T12:37:30;6.35;;;3.90;;
13366;SDS011;6752;52.612;13.630;2022-07-22T12:42:34;9.07;;;3.35;;
13366;SDS011;6752;52.612;13.630;2022-07-22T12:52:55;8.73;;;2.67;;
13366;SDS011;6752;52.612;13.630;2022-07-22T12:57:56;5.22;;;2.40;;
13366;SDS011;6752;52.612;13.630;2022-07-22T13:03:00;4.95;;;1.90;;
13366;SDS011;6752;52.612;13.630;2022-07-22T13:08:02;3.95;;;1.90;;
13366;SDS011;6752;52.612;13.630;2022-07-22T13:13:05;3.17;;;1.73;;
13366;SDS011;6752;52.612;13.630;2022-07-22T13:18:11;3.03;;;1.42;;
13366;SDS011;6752;52.612;13.630;2022-07-22T13:23:13;2.35;;;0.95;;
13366;SDS011;6752;52.612;13.630;2022-07-22T13:33:25;6.57;;;1.30;;
13366;SDS011;6752;52.612;13.630;2022-07-22T13:38:27;3.43;;;1.30;;
13366;SDS011;6752;52.612;13.630;2022-07-22T13:43:32;2.72;;;1.52;;
13366;SDS011;6752;52.612;13.630;2022-07-22T13:48:35;4.27;;;1.40;;
13366;SDS011;6752;52.612;13.630;2022-07-22T13:53:40;4.28;;;1.33;;
13366;SDS011;6752;52.612;13.630;2022-07-22T13:58:42;5.22;;;1.90;;
13366;SDS011;6752;52.612;13.630;2022-07-22T14:08:46;3.83;;;1.30;;
13366;SDS011;6752;52.612;13.630;2022-07-22T14:13:49;3.33;;;1.25;;
13366;SDS011;6752;52.612;13.630;2022-07-22T14:18:51;4.10;;;1.58;;
13366;SDS011;6752;52.612;13.630;2022-07-22T14:23:54;4.73;;;1.10;;
13366;SDS011;6752;52.612;13.630;2022-07-22T14:28:56;4.05;;;1.00;;
13366;SDS011;6752;52.612;13.630;2022-07-22T14:33:58;32.63;;;1.83;;
13366;SDS011;6752;52.612;13.630;2022-07-22T14:49:05;2.58;;;1.10;;
13366;SDS011;6752;52.612;13.630;2022-07-22T14:54:07;7.85;;;1.05;;
13366;SDS011;6752;52.612;13.630;2022-07-22T14:59:09;3.23;;;0.80;;
13366;SDS011;6752;52.612;13.630;2022-07-22T15:04:12;2.85;;;0.90;;
13366;SDS011;6752;52.612;13.630;2022-07-22T15:09:14;1.80;;;0.73;;
13366;SDS011;6752;52.612;13.630;2022-07-22T15:14:16;23.87;;;1.77;;
13366;SDS011;6752;52.612;13.630;2022-07-22T15:19:19;3.87;;;1.52;;
13366;SDS011;6752;52.612;13.630;2022-07-22T15:24:22;2.10;;;0.82;;
13366;SDS011;6752;52.612;13.630;2022-07-22T15:29:24;4.87;;;0.85;;
13366;SDS011;6752;52.612;13.630;2022-07-22T15:34:29;2.62;;;0.98;;
13366;SDS011;6752;52.612;13.630;2022-07-22T15:39:31;2.75;;;0.95;;
13366;SDS011;6752;52.612;13.630;2022-07-22T15:44:34;3.17;;;1.00;;
13366;SDS011;6752;52.612;13.630;2022-07-22T15:49:36;2.12;;;0.93;;
13366;SDS011;6752;52.612;13.630;2022-07-22T15:54:39;2.05;;;0.70;;
13366;SDS011;6752;52.612;13.630;2022-07-22T15:59:41;2.25;;;0.80;;
13366;SDS011;6752;52.612;13.630;2022-07-22T16:04:44;2.42;;;0.90;;
13366;SDS011;6752;52.612;13.630;2022-07-22T16:09:46;3.27;;;0.90;;
13366;SDS011;6752;52.612;13.630;2022-07-22T16:14:48;2.10;;;0.93;;
13366;SDS011;6752;52.612;13.630;2022-07-22T16:19:51;3.60;;;0.90;;
13366;SDS011;6752;52.612;13.630;2022-07-22T16:24:56;4.12;;;0.80;;
13366;SDS011;6752;52.612;13.630;2022-07-22T16:29:58;3.17;;;0.95;;
13366;SDS011;6752;52.612;13.630;2022-07-22T16:35:01;2.70;;;0.93;;
13366;SDS011;6752;52.612;13.630;2022-07-22T16:40:03;3.28;;;1.10;;
13366;SDS011;6752;52.612;13.630;2022-07-22T16:45:09;2.70;;;0.90;;
13366;SDS011;6752;52.612;13.630;2022-07-22T16:50:11;7.35;;;1.55;;
13366;SDS011;6752;52.612;13.630;2022-07-22T16:55:14;4.75;;;1.23;;
13366;SDS011;6752;52.612;13.630;2022-07-22T17:00:16;3.37;;;1.10;;
13366;SDS011;6752;52.612;13.630;2022-07-22T17:05:19;3.85;;;1.40;;
13366;SDS011;6752;52.612;13.630;2022-07-22T17:15:23;3.78;;;1.50;;
13366;SDS011;6752;52.612;13.630;2022-07-22T17:25:30;4.28;;;1.65;;
13366;SDS011;6752;52.612;13.630;2022-07-22T17:30:34;3.60;;;1.67;;
13366;SDS011;6752;52.612;13.630;2022-07-22T17:35:39;3.72;;;1.55;;
13366;SDS011;6752;52.612;13.630;2022-07-22T17:40:42;3.78;;;1.60;;
13366;SDS011;6752;52.612;13.630;2022-07-22T17:45:44;3.80;;;1.23;;
13366;SDS011;6752;52.612;13.630;2022-07-22T17:50:46;3.42;;;1.50;;
13366;SDS011;6752;52.612;13.630;2022-07-22T17:55:52;3.90;;;1.70;;
13366;SDS011;6752;52.612;13.630;2022-07-22T18:00:54;4.40;;;1.75;;
13366;SDS011;6752;52.612;13.630;2022-07-22T18:05:57;5.12;;;1.60;;
13366;SDS011;6752;52.612;13.630;2022-07-22T18:10:59;8.23;;;2.00;;
13366;SDS011;6752;52.612;13.630;2022-07-22T18:16:02;4.25;;;1.55;;
13366;SDS011;6752;52.612;13.630;2022-07-22T18:21:04;4.22;;;1.75;;
13366;SDS011;6752;52.612;13.630;2022-07-22T18:26:07;4.72;;;2.05;;
13366;SDS011;6752;52.612;13.630;2022-07-22T18:36:11;6.00;;;2.03;;
13366;SDS011;6752;52.612;13.630;2022-07-22T18:41:16;4.07;;;1.67;;
13366;SDS011;6752;52.612;13.630;2022-07-22T18:46:18;4.37;;;1.90;;
13366;SDS011;6752;52.612;13.630;2022-07-22T18:51:21;4.32;;;1.50;;
13366;SDS011;6752;52.612;13.630;2022-07-22T18:56:23;4.40;;;1.98;;
13366;SDS011;6752;52.612;13.630;2022-07-22T19:06:28;5.93;;;1.85;;
13366;SDS011;6752;52.612;13.630;2022-07-22T19:11:30;7.82;;;2.83;;
13366;SDS011;6752;52.612;13.630;2022-07-22T19:16:33;7.93;;;3.28;;
13366;SDS011;6752;52.612;13.630;2022-07-22T19:21:37;5.57;;;2.50;;
13366;SDS011;6752;52.612;13.630;2022-07-22T19:26:40;5.03;;;2.37;;
13366;SDS011;6752;52.612;13.630;2022-07-22T19:31:45;6.43;;;3.00;;
13366;SDS011;6752;52.612;13.630;2022-07-22T19:36:48;7.18;;;3.22;;
13366;SDS011;6752;52.612;13.630;2022-07-22T19:41:50;6.35;;;3.15;;
13366;SDS011;6752;52.612;13.630;2022-07-22T19:46:52;7.85;;;3.40;;
13366;SDS011;6752;52.612;13.630;2022-07-22T19:51:55;9.65;;;3.90;;
13366;SDS011;6752;52.612;13.630;2022-07-22T19:56:58;6.53;;;2.97;;
13366;SDS011;6752;52.612;13.630;2022-07-22T20:02:00;5.70;;;2.75;;
13366;SDS011;6752;52.612;13.630;2022-07-22T20:07:02;7.35;;;2.50;;
13366;SDS011;6752;52.612;13.630;2022-07-22T20:12:05;5.87;;;2.30;;
13366;SDS011;6752;52.612;13.630;2022-07-22T20:17:08;7.55;;;2.85;;
13366;SDS011;6752;52.612;13.630;2022-07-22T20:22:11;7.35;;;3.17;;
13366;SDS011;6752;52.612;13.630;2022-07-22T20:27:14;6.12;;;3.28;;
13366;SDS011;6752;52.612;13.630;2022-07-22T20:32:17;9.38;;;3.33;;
13366;SDS011;6752;52.612;13.630;2022-07-22T20:37:22;7.57;;;3.03;;
13366;SDS011;6752;52.612;13.630;2022-07-22T20:42:24;6.28;;;2.87;;
13366;SDS011;6752;52.612;13.630;2022-07-22T20:47:29;5.90;;;3.05;;
13366;SDS011;6752;52.612;13.630;2022-07-22T20:52:35;9.50;;;3.30;;
13366;SDS011;6752;52.612;13.630;2022-07-22T21:02:42;6.40;;;3.03;;
13366;SDS011;6752;52.612;13.630;2022-07-22T21:07:44;8.35;;;3.10;;
13366;SDS011;6752;52.612;13.630;2022-07-22T21:12:50;8.60;;;3.50;;
13366;SDS011;6752;52.612;13.630;2022-07-22T21:17:55;7.30;;;3.00;;
13366;SDS011;6752;52.612;13.630;2022-07-22T21:23:04;10.02;;;3.00;;
13366;SDS011;6752;52.612;13.630;2022-07-22T21:28:11;8.18;;;3.42;;
13366;SDS011;6752;52.612;13.630;2022-07-22T21:33:19;7.68;;;3.03;;
13366;SDS011;6752;52.612;13.630;2022-07-22T21:38:25;7.50;;;2.97;;
13366;SDS011;6752;52.612;13.630;2022-07-22T21:43:33;9.13;;;3.10;;
13366;SDS011;6752;52.612;13.630;2022-07-22T21:48:35;6.47;;;3.35;;
13366;SDS011;6752;52.612;13.630;2022-07-22T21:53:37;8.45;;;3.28;;
13366;SDS011;6752;52.612;13.630;2022-07-22T21:58:40;8.77;;;3.80;;
13366;SDS011;6752;52.612;13.630;2022-07-22T22:03:43;7.22;;;3.20;;
13366;SDS011;6752;52.612;13.630;2022-07-22T22:08:47;6.75;;;3.75;;
13366;SDS011;6752;52.612;13.630;2022-07-22T22:13:52;9.10;;;3.37;;
13366;SDS011;6752;52.612;13.630;2022-07-22T22:18:55;7.60;;;4.15;;
13366;SDS011;6752;52.612;13.630;2022-07-22T22:23:58;7.97;;;3.37;;
13366;SDS011;6752;52.612;13.630;2022-07-22T22:29:00;8.50;;;3.45;;
13366;SDS011;6752;52.612;13.630;2022-07-22T22:34:06;7.18;;;3.15;;
13366;SDS011;6752;52.612;13.630;2022-07-22T22:39:06;7.68;;;3.55;;
13366;SDS011;6752;52.612;13.630;2022-07-22T22:44:08;6.72;;;3.20;;
13366;SDS011;6752;52.612;13.630;2022-07-22T22:49:11;6.72;;;4.10;;
13366;SDS011;6752;52.612;13.630;2022-07-22T22:54:13;6.30;;;3.78;;
13366;SDS011;6752;52.612;13.630;2022-07-22T22:59:16;6.37;;;3.60;;
13366;SDS011;6752;52.612;13.630;2022-07-22T23:04:19;7.97;;;3.58;;
13366;SDS011;6752;52.612;13.630;2022-07-22T23:09:22;9.70;;;3.83;;
13366;SDS011;6752;52.612;13.630;2022-07-22T23:19:26;9.35;;;4.35;;
13366;SDS011;6752;52.612;13.630;2022-07-22T23:24:29;7.53;;;3.57;;
13366;SDS011;6752;52.612;13.630;2022-07-22T23:29:31;5.60;;;3.30;;
13366;SDS011;6752;52.612;13.630;2022-07-22T23:34:34;7.70;;;4.28;;
13366;SDS011;6752;52.612;13.630;2022-07-22T23:39:45;10.63;;;4.62;;
13366;SDS011;6752;52.612;13.630;2022-07-22T23:44:48;7.18;;;4.37;;
13366;SDS011;6752;52.612;13.630;2022-07-22T23:49:50;9.13;;;3.67;;
13366;SDS011;6752;52.612;13.630;2022-07-22T23:54:53;8.43;;;3.87;;
13366;SDS011;6752;52.612;13.630;2022-07-22T23:59:55;7.05;;;4.43;;
